sensor_id;sensor_type;location;lat;lon;timestamp;pressure;altitude;pressure_sealevel;temperature;humidity
11523;BME280;40093;43.224;27.910;2022-08-11T00:02:31;100250.94;;;20.31;85.67
11523;BME280;40093;43.224;27.910;2022-08-11T00:05:03;100241.63;;;20.33;85.49
11523;BME280;40093;43.224;27.910;2022-08-11T00:07:32;100234.94;;;20.43;84.83
11523;BME280;40093;43.224;27.910;2022-08-11T00:09:59;100264.56;;;20.53;84.40
11523;BME280;40093;43.224;27.910;2022-08-11T00:12:27;100262.75;;;20.59;83.86
11523;BME280;40093;43.224;27.910;2022-08-11T00:14:58;100252.25;;;20.63;83.10
11523;BME280;40093;43.224;27.910;2022-08-11T00:17:27;100251.44;;;20.63;83.10
11523;BME280;40093;43.224;27.910;2022-08-11T00:20:03;100243.38;;;20.65;83.16
11523;BME280;40093;43.224;27.910;2022-08-11T00:22:32;100243.75;;;20.54;83.76
11523;BME280;40093;43.224;27.910;2022-08-11T00:25:00;100235.25;;;20.45;84.17
11523;BME280;40093;43.224;27.910;2022-08-11T00:27:36;100238.16;;;20.54;84.07
11523;BME280;40093;43.224;27.910;2022-08-11T00:30:05;100216.59;;;20.55;83.74
11523;BME280;40093;43.224;27.910;2022-08-11T00:32:33;100234.69;;;20.26;85.81
11523;BME280;40093;43.224;27.910;2022-08-11T00:35:02;100208.44;;;20.35;85.52
11523;BME280;40093;43.224;27.910;2022-08-11T00:37:29;100230.34;;;20.37;85.18
11523;BME280;40093;43.224;27.910;2022-08-11T00:39:58;100248.78;;;20.47;84.69
11523;BME280;40093;43.224;27.910;2022-08-11T00:42:39;100247.13;;;20.37;84.79
11523;BME280;40093;43.224;27.910;2022-08-11T00:45:13;100252.50;;;20.32;85.34
11523;BME280;40093;43.224;27.910;2022-08-11T00:47:54;100241.75;;;20.42;85.23
11523;BME280;40093;43.224;27.910;2022-08-11T00:50:28;100239.41;;;20.41;85.02
11523;BME280;40093;43.224;27.910;2022-08-11T00:53:31;100261.31;;;20.30;85.39
11523;BME280;40093;43.224;27.910;2022-08-11T00:56:31;100267.69;;;20.31;85.58
11523;BME280;40093;43.224;27.910;2022-08-11T00:59:34;100273.03;;;20.37;85.08
11523;BME280;40093;43.224;27.910;2022-08-11T01:02:16;100270.59;;;20.39;85.04
11523;BME280;40093;43.224;27.910;2022-08-11T01:05:13;100275.50;;;20.48;84.56
11523;BME280;40093;43.224;27.910;2022-08-11T01:11:16;100278.84;;;20.55;83.14
11523;BME280;40093;43.224;27.910;2022-08-11T01:20:10;100270.78;;;20.57;82.80
11523;BME280;40093;43.224;27.910;2022-08-11T01:23:27;100270.47;;;20.68;82.22
11523;BME280;40093;43.224;27.910;2022-08-11T01:26:42;100268.00;;;20.70;82.30
11523;BME280;40093;43.224;27.910;2022-08-11T01:29:39;100276.38;;;20.57;82.83
11523;BME280;40093;43.224;27.910;2022-08-11T01:38:55;100263.09;;;20.49;83.27
11523;BME280;40093;43.224;27.910;2022-08-11T01:41:49;100239.19;;;20.48;82.84
11523;BME280;40093;43.224;27.910;2022-08-11T01:47:43;100234.00;;;20.59;82.41
11523;BME280;40093;43.224;27.910;2022-08-11T01:50:25;100234.34;;;20.61;82.23
11523;BME280;40093;43.224;27.910;2022-08-11T01:53:03;100226.19;;;20.54;82.72
11523;BME280;40093;43.224;27.910;2022-08-11T01:55:39;100210.19;;;20.54;82.06
11523;BME280;40093;43.224;27.910;2022-08-11T01:58:15;100193.75;;;20.56;82.23
11523;BME280;40093;43.224;27.910;2022-08-11T02:00:54;100209.63;;;20.59;81.98
11523;BME280;40093;43.224;27.910;2022-08-11T02:03:32;100215.91;;;20.63;81.52
11523;BME280;40093;43.224;27.910;2022-08-11T02:06:10;100209.84;;;20.65;81.62
11523;BME280;40093;43.224;27.910;2022-08-11T02:09:01;100205.94;;;20.62;81.69
11523;BME280;40093;43.224;27.910;2022-08-11T02:11:31;100209.97;;;20.61;81.41
11523;BME280;40093;43.224;27.910;2022-08-11T02:14:10;100221.38;;;20.54;82.20
11523;BME280;40093;43.224;27.910;2022-08-11T02:16:54;100220.47;;;20.57;82.03
11523;BME280;40093;43.224;27.910;2022-08-11T02:19:30;100198.09;;;20.57;81.81
11523;BME280;40093;43.224;27.910;2022-08-11T02:22:24;100219.59;;;20.60;82.06
11523;BME280;40093;43.224;27.910;2022-08-11T02:25:22;100225.31;;;20.57;82.37
11523;BME280;40093;43.224;27.910;2022-08-11T02:28:00;100220.56;;;20.66;81.92
11523;BME280;40093;43.224;27.910;2022-08-11T02:30:32;100228.31;;;20.62;82.02
11523;BME280;40093;43.224;27.910;2022-08-11T02:33:15;100230.94;;;20.78;81.42
11523;BME280;40093;43.224;27.910;2022-08-11T02:35:58;100231.63;;;20.82;81.05
11523;BME280;40093;43.224;27.910;2022-08-11T02:38:32;100233.75;;;20.78;81.27
11523;BME280;40093;43.224;27.910;2022-08-11T02:41:09;100242.94;;;20.79;81.29
11523;BME280;40093;43.224;27.910;2022-08-11T02:46:48;100239.47;;;20.87;81.16
11523;BME280;40093;43.224;27.910;2022-08-11T02:49:26;100246.28;;;20.86;81.15
11523;BME280;40093;43.224;27.910;2022-08-11T02:52:19;100248.88;;;20.68;82.09
11523;BME280;40093;43.224;27.910;2022-08-11T02:54:52;100248.09;;;20.68;82.74
11523;BME280;40093;43.224;27.910;2022-08-11T02:57:32;100251.88;;;20.74;82.41
11523;BME280;40093;43.224;27.910;2022-08-11T03:00:06;100238.59;;;20.65;82.72
11523;BME280;40093;43.224;27.910;2022-08-11T03:02:46;100250.25;;;20.51;84.02
11523;BME280;40093;43.224;27.910;2022-08-11T03:05:26;100239.72;;;20.55;84.47
11523;BME280;40093;43.224;27.910;2022-08-11T03:08:22;100248.09;;;20.68;83.91
11523;BME280;40093;43.224;27.910;2022-08-11T03:10:59;100253.00;;;20.76;83.59
11523;BME280;40093;43.224;27.910;2022-08-11T03:13:57;100239.22;;;20.82;83.68
11523;BME280;40093;43.224;27.910;2022-08-11T03:16:51;100252.44;;;20.81;83.98
11523;BME280;40093;43.224;27.910;2022-08-11T03:19:29;100258.91;;;20.78;84.69
11523;BME280;40093;43.224;27.910;2022-08-11T03:22:08;100254.88;;;20.79;84.63
11523;BME280;40093;43.224;27.910;2022-08-11T03:24:48;100251.34;;;20.66;85.10
11523;BME280;40093;43.224;27.910;2022-08-11T03:27:32;100265.00;;;20.64;85.57
11523;BME280;40093;43.224;27.910;2022-08-11T03:30:06;100271.91;;;20.72;85.30
11523;BME280;40093;43.224;27.910;2022-08-11T03:32:45;100250.22;;;20.64;86.10
11523;BME280;40093;43.224;27.910;2022-08-11T03:35:40;100260.59;;;20.88;85.02
11523;BME280;40093;43.224;27.910;2022-08-11T03:38:10;100263.81;;;20.99;84.44
11523;BME280;40093;43.224;27.910;2022-08-11T03:40:45;100261.41;;;21.23;82.66
11523;BME280;40093;43.224;27.910;2022-08-11T03:43:51;100263.69;;;21.37;81.91
11523;BME280;40093;43.224;27.910;2022-08-11T03:46:28;100268.25;;;21.43;81.27
11523;BME280;40093;43.224;27.910;2022-08-11T03:52:12;100248.88;;;22.22;77.54
11523;BME280;40093;43.224;27.910;2022-08-11T03:54:50;100241.28;;;22.01;77.38
11523;BME280;40093;43.224;27.910;2022-08-11T03:58:05;100265.81;;;22.19;76.82
11523;BME280;40093;43.224;27.910;2022-08-11T04:01:06;100260.50;;;22.51;75.73
11523;BME280;40093;43.224;27.910;2022-08-11T04:04:07;100258.41;;;22.82;74.13
11523;BME280;40093;43.224;27.910;2022-08-11T04:06:52;100264.03;;;22.82;73.54
11523;BME280;40093;43.224;27.910;2022-08-11T04:09:59;100264.75;;;23.13;73.11
11523;BME280;40093;43.224;27.910;2022-08-11T04:12:43;100250.81;;;23.72;69.50
11523;BME280;40093;43.224;27.910;2022-08-11T04:15:40;100258.16;;;23.79;68.94
11523;BME280;40093;43.224;27.910;2022-08-11T04:24:57;100269.09;;;23.86;68.91
11523;BME280;40093;43.224;27.910;2022-08-11T04:27:47;100264.97;;;24.23;67.32
11523;BME280;40093;43.224;27.910;2022-08-11T04:30:27;100264.25;;;24.37;66.75
11523;BME280;40093;43.224;27.910;2022-08-11T04:36:28;100250.28;;;24.10;67.75
11523;BME280;40093;43.224;27.910;2022-08-11T04:39:27;100278.09;;;24.08;68.65
11523;BME280;40093;43.224;27.910;2022-08-11T04:42:13;100264.72;;;23.94;68.92
11523;BME280;40093;43.224;27.910;2022-08-11T04:45:35;100273.63;;;23.20;73.44
11523;BME280;40093;43.224;27.910;2022-08-11T04:48:21;100260.28;;;22.67;76.58
11523;BME280;40093;43.224;27.910;2022-08-11T04:51:27;100247.78;;;22.68;78.10
11523;BME280;40093;43.224;27.910;2022-08-11T04:54:25;100263.66;;;22.53;79.20
11523;BME280;40093;43.224;27.910;2022-08-11T04:57:19;100254.50;;;22.01;82.70
11523;BME280;40093;43.224;27.910;2022-08-11T05:00:07;100250.47;;;22.32;81.61
11523;BME280;40093;43.224;27.910;2022-08-11T05:06:14;100272.44;;;22.73;80.11
11523;BME280;40093;43.224;27.910;2022-08-11T05:09:09;100267.50;;;22.86;79.29
11523;BME280;40093;43.224;27.910;2022-08-11T05:12:03;100282.84;;;23.75;75.07
11523;BME280;40093;43.224;27.910;2022-08-11T05:14:35;100279.06;;;24.46;71.30
11523;BME280;40093;43.224;27.910;2022-08-11T05:17:37;100282.69;;;25.03;68.17
11523;BME280;40093;43.224;27.910;2022-08-11T05:20:24;100284.50;;;25.15;66.46
11523;BME280;40093;43.224;27.910;2022-08-11T05:23:10;100288.72;;;24.63;68.44
11523;BME280;40093;43.224;27.910;2022-08-11T05:25:57;100290.38;;;25.02;67.27
11523;BME280;40093;43.224;27.910;2022-08-11T05:28:49;100296.13;;;25.69;64.65
11523;BME280;40093;43.224;27.910;2022-08-11T05:31:36;100297.16;;;26.09;62.29
11523;BME280;40093;43.224;27.910;2022-08-11T05:34:23;100301.88;;;26.76;60.01
11523;BME280;40093;43.224;27.910;2022-08-11T05:37:12;100303.94;;;27.30;57.70
11523;BME280;40093;43.224;27.910;2022-08-11T05:39:43;100307.34;;;27.99;55.63
11523;BME280;40093;43.224;27.910;2022-08-11T05:42:31;100298.81;;;28.50;53.03
11523;BME280;40093;43.224;27.910;2022-08-11T05:45:17;100298.16;;;28.66;51.89
11523;BME280;40093;43.224;27.910;2022-08-11T05:48:03;100304.84;;;28.07;53.20
11523;BME280;40093;43.224;27.910;2022-08-11T05:50:52;100299.50;;;28.14;53.60
11523;BME280;40093;43.224;27.910;2022-08-11T05:53:45;100295.75;;;27.52;54.13
11523;BME280;40093;43.224;27.910;2022-08-11T05:56:32;100299.69;;;27.60;54.89
11523;BME280;40093;43.224;27.910;2022-08-11T05:59:00;100299.31;;;28.23;52.97
11523;BME280;40093;43.224;27.910;2022-08-11T06:01:31;100317.66;;;28.59;52.57
11523;BME280;40093;43.224;27.910;2022-08-11T06:04:04;100306.28;;;28.84;50.63
11523;BME280;40093;43.224;27.910;2022-08-11T06:06:50;100308.69;;;28.60;50.66
11523;BME280;40093;43.224;27.910;2022-08-11T06:09:28;100320.13;;;28.76;50.68
11523;BME280;40093;43.224;27.910;2022-08-11T06:11:59;100309.88;;;28.48;49.90
11523;BME280;40093;43.224;27.910;2022-08-11T06:14:27;100311.78;;;28.62;50.59
11523;BME280;40093;43.224;27.910;2022-08-11T06:16:58;100296.59;;;28.96;49.46
11523;BME280;40093;43.224;27.910;2022-08-11T06:19:34;100303.28;;;29.46;48.31
11523;BME280;40093;43.224;27.910;2022-08-11T06:22:02;100306.25;;;29.79;46.96
11523;BME280;40093;43.224;27.910;2022-08-11T06:24:30;100300.22;;;29.49;46.95
11523;BME280;40093;43.224;27.910;2022-08-11T06:26:59;100304.38;;;29.59;47.70
11523;BME280;40093;43.224;27.910;2022-08-11T06:29:27;100302.16;;;30.02;46.07
11523;BME280;40093;43.224;27.910;2022-08-11T06:31:57;100299.81;;;29.95;45.87
11523;BME280;40093;43.224;27.910;2022-08-11T06:34:39;100308.34;;;29.95;46.02
11523;BME280;40093;43.224;27.910;2022-08-11T06:37:22;100311.50;;;30.19;45.17
11523;BME280;40093;43.224;27.910;2022-08-11T06:40:04;100307.88;;;30.57;44.03
11523;BME280;40093;43.224;27.910;2022-08-11T06:42:52;100307.88;;;30.57;43.70
11523;BME280;40093;43.224;27.910;2022-08-11T06:45:27;100285.06;;;29.63;44.81
11523;BME280;40093;43.224;27.910;2022-08-11T06:47:56;100293.19;;;29.34;45.47
11523;BME280;40093;43.224;27.910;2022-08-11T06:50:26;100290.56;;;29.25;45.87
11523;BME280;40093;43.224;27.910;2022-08-11T06:53:14;100299.78;;;29.20;45.46
11523;BME280;40093;43.224;27.910;2022-08-11T06:55:45;100314.59;;;28.93;46.78
11523;BME280;40093;43.224;27.910;2022-08-11T06:58:33;100300.53;;;29.09;46.17
11523;BME280;40093;43.224;27.910;2022-08-11T07:01:31;100306.09;;;29.40;44.90
11523;BME280;40093;43.224;27.910;2022-08-11T07:04:07;100317.97;;;28.66;45.71
11523;BME280;40093;43.224;27.910;2022-08-11T07:06:47;100317.22;;;28.66;46.57
11523;BME280;40093;43.224;27.910;2022-08-11T07:10:27;100313.44;;;29.16;45.06
11523;BME280;40093;43.224;27.910;2022-08-11T07:13:18;100316.47;;;29.54;44.18
11523;BME280;40093;43.224;27.910;2022-08-11T07:16:06;100322.50;;;29.89;43.62
11523;BME280;40093;43.224;27.910;2022-08-11T07:18:35;100320.97;;;29.99;42.83
11523;BME280;40093;43.224;27.910;2022-08-11T07:21:26;100317.34;;;29.24;43.38
11523;BME280;40093;43.224;27.910;2022-08-11T07:24:15;100312.63;;;29.63;43.42
11523;BME280;40093;43.224;27.910;2022-08-11T07:27:00;100316.41;;;30.24;41.79
11523;BME280;40093;43.224;27.910;2022-08-11T07:29:48;100328.56;;;30.30;41.90
11523;BME280;40093;43.224;27.910;2022-08-11T07:32:23;100337.06;;;30.52;41.29
11523;BME280;40093;43.224;27.910;2022-08-11T07:34:57;100318.50;;;30.67;40.82
11523;BME280;40093;43.224;27.910;2022-08-11T07:37:29;100328.81;;;30.59;40.71
11523;BME280;40093;43.224;27.910;2022-08-11T07:39:58;100323.16;;;29.04;43.50
11523;BME280;40093;43.224;27.910;2022-08-11T07:42:30;100327.38;;;29.78;42.92
11523;BME280;40093;43.224;27.910;2022-08-11T07:45:02;100328.88;;;29.62;42.69
11523;BME280;40093;43.224;27.910;2022-08-11T07:47:47;100333.59;;;29.82;42.39
11523;BME280;40093;43.224;27.910;2022-08-11T07:50:33;100330.06;;;30.09;42.39
11523;BME280;40093;43.224;27.910;2022-08-11T07:53:20;100327.25;;;30.47;41.66
11523;BME280;40093;43.224;27.910;2022-08-11T07:55:47;100323.13;;;30.76;41.23
11523;BME280;40093;43.224;27.910;2022-08-11T07:58:16;100326.22;;;30.89;40.75
11523;BME280;40093;43.224;27.910;2022-08-11T08:01:01;100312.53;;;30.82;40.52
11523;BME280;40093;43.224;27.910;2022-08-11T08:03:46;100311.22;;;30.17;41.61
11523;BME280;40093;43.224;27.910;2022-08-11T08:06:32;100300.41;;;30.32;42.21
11523;BME280;40093;43.224;27.910;2022-08-11T08:09:20;100309.16;;;30.12;42.15
11523;BME280;40093;43.224;27.910;2022-08-11T08:12:06;100307.22;;;29.65;42.55
11523;BME280;40093;43.224;27.910;2022-08-11T08:14:52;100315.50;;;29.21;43.59
11523;BME280;40093;43.224;27.910;2022-08-11T08:17:39;100304.25;;;29.37;43.23
11523;BME280;40093;43.224;27.910;2022-08-11T08:20:19;100322.50;;;29.89;42.08
11523;BME280;40093;43.224;27.910;2022-08-11T08:22:48;100311.38;;;29.75;41.77
11523;BME280;40093;43.224;27.910;2022-08-11T08:25:18;100318.44;;;29.43;41.31
11523;BME280;40093;43.224;27.910;2022-08-11T08:27:46;100303.81;;;28.66;43.55
11523;BME280;40093;43.224;27.910;2022-08-11T08:30:16;100314.50;;;29.18;42.59
11523;BME280;40093;43.224;27.910;2022-08-11T08:33:01;100308.78;;;29.13;42.70
11523;BME280;40093;43.224;27.910;2022-08-11T08:35:29;100310.63;;;29.21;42.29
11523;BME280;40093;43.224;27.910;2022-08-11T08:37:56;100311.63;;;28.40;43.18
11523;BME280;40093;43.224;27.910;2022-08-11T08:40:25;100301.63;;;28.45;43.51
11523;BME280;40093;43.224;27.910;2022-08-11T08:42:55;100300.25;;;29.02;42.42
11523;BME280;40093;43.224;27.910;2022-08-11T08:45:23;100303.25;;;29.40;41.47
11523;BME280;40093;43.224;27.910;2022-08-11T08:47:58;100289.16;;;29.57;40.70
11523;BME280;40093;43.224;27.910;2022-08-11T08:50:29;100291.31;;;29.25;44.81
11523;BME280;40093;43.224;27.910;2022-08-11T08:53:12;100289.44;;;29.64;43.74
11523;BME280;40093;43.224;27.910;2022-08-11T08:55:41;100284.84;;;29.78;42.38
11523;BME280;40093;43.224;27.910;2022-08-11T08:58:09;100295.44;;;29.99;40.49
11523;BME280;40093;43.224;27.910;2022-08-11T09:00:42;100282.75;;;29.78;42.09
11523;BME280;40093;43.224;27.910;2022-08-11T09:03:10;100292.84;;;29.96;40.02
11523;BME280;40093;43.224;27.910;2022-08-11T09:05:38;100283.88;;;30.14;40.17
11523;BME280;40093;43.224;27.910;2022-08-11T09:08:06;100288.81;;;30.24;40.21
11523;BME280;40093;43.224;27.910;2022-08-11T09:10:34;100284.94;;;28.88;40.79
11523;BME280;40093;43.224;27.910;2022-08-11T09:13:04;100256.72;;;29.05;41.23
11523;BME280;40093;43.224;27.910;2022-08-11T09:15:33;100274.59;;;29.33;41.11
11523;BME280;40093;43.224;27.910;2022-08-11T09:18:02;100279.31;;;29.47;40.92
11523;BME280;40093;43.224;27.910;2022-08-11T09:20:35;100255.03;;;29.29;41.14
11523;BME280;40093;43.224;27.910;2022-08-11T09:23:05;100276.06;;;29.12;41.47
11523;BME280;40093;43.224;27.910;2022-08-11T09:25:54;100278.72;;;29.32;40.51
11523;BME280;40093;43.224;27.910;2022-08-11T09:28:42;100271.34;;;29.51;40.82
11523;BME280;40093;43.224;27.910;2022-08-11T09:31:10;100275.53;;;29.72;40.30
11523;BME280;40093;43.224;27.910;2022-08-11T09:33:38;100286.97;;;29.30;40.12
11523;BME280;40093;43.224;27.910;2022-08-11T09:36:07;100262.00;;;29.34;40.39
11523;BME280;40093;43.224;27.910;2022-08-11T09:38:49;100270.63;;;29.67;40.99
11523;BME280;40093;43.224;27.910;2022-08-11T09:41:34;100271.75;;;29.33;40.41
11523;BME280;40093;43.224;27.910;2022-08-11T09:44:03;100262.25;;;29.36;40.59
11523;BME280;40093;43.224;27.910;2022-08-11T09:46:50;100260.41;;;29.33;39.74
11523;BME280;40093;43.224;27.910;2022-08-11T09:49:19;100265.38;;;28.54;41.73
11523;BME280;40093;43.224;27.910;2022-08-11T09:51:47;100253.66;;;29.14;41.33
11523;BME280;40093;43.224;27.910;2022-08-11T09:54:15;100255.63;;;29.50;40.92
11523;BME280;40093;43.224;27.910;2022-08-11T09:56:44;100269.50;;;29.48;40.48
11523;BME280;40093;43.224;27.910;2022-08-11T09:59:30;100263.41;;;29.66;40.03
11523;BME280;40093;43.224;27.910;2022-08-11T10:01:59;100247.66;;;29.65;39.99
11523;BME280;40093;43.224;27.910;2022-08-11T10:04:30;100260.63;;;29.93;38.59
11523;BME280;40093;43.224;27.910;2022-08-11T10:07:01;100253.94;;;30.18;38.48
11523;BME280;40093;43.224;27.910;2022-08-11T10:09:35;100239.75;;;30.24;37.84
11523;BME280;40093;43.224;27.910;2022-08-11T10:12:05;100260.09;;;29.95;39.53
11523;BME280;40093;43.224;27.910;2022-08-11T10:14:37;100259.06;;;29.92;39.12
11523;BME280;40093;43.224;27.910;2022-08-11T10:17:23;100259.31;;;29.89;38.69
11523;BME280;40093;43.224;27.910;2022-08-11T10:19:51;100272.25;;;30.01;38.06
11523;BME280;40093;43.224;27.910;2022-08-11T10:22:22;100259.59;;;29.91;38.70
11523;BME280;40093;43.224;27.910;2022-08-11T10:25:08;100248.69;;;29.62;38.85
11523;BME280;40093;43.224;27.910;2022-08-11T10:27:52;100256.72;;;29.69;39.38
11523;BME280;40093;43.224;27.910;2022-08-11T10:30:25;100264.22;;;29.94;39.32
11523;BME280;40093;43.224;27.910;2022-08-11T10:33:11;100256.25;;;30.03;39.33
11523;BME280;40093;43.224;27.910;2022-08-11T10:35:56;100248.00;;;30.00;38.92
11523;BME280;40093;43.224;27.910;2022-08-11T10:38:24;100241.81;;;30.18;39.31
11523;BME280;40093;43.224;27.910;2022-08-11T10:40:53;100252.38;;;29.90;38.71
11523;BME280;40093;43.224;27.910;2022-08-11T10:43:36;100253.41;;;29.98;38.40
11523;BME280;40093;43.224;27.910;2022-08-11T10:46:08;100255.44;;;29.75;38.92
11523;BME280;40093;43.224;27.910;2022-08-11T10:48:54;100244.94;;;30.09;38.72
11523;BME280;40093;43.224;27.910;2022-08-11T10:51:22;100244.38;;;30.27;38.06
11523;BME280;40093;43.224;27.910;2022-08-11T10:54:08;100251.31;;;29.76;38.33
11523;BME280;40093;43.224;27.910;2022-08-11T10:56:53;100234.75;;;29.64;38.17
11523;BME280;40093;43.224;27.910;2022-08-11T10:59:38;100242.78;;;29.71;38.46
11523;BME280;40093;43.224;27.910;2022-08-11T11:02:11;100236.09;;;29.85;38.31
11523;BME280;40093;43.224;27.910;2022-08-11T11:04:56;100243.84;;;29.95;38.80
11523;BME280;40093;43.224;27.910;2022-08-11T11:07:28;100225.56;;;30.13;38.38
11523;BME280;40093;43.224;27.910;2022-08-11T11:09:59;100228.41;;;30.29;38.10
11523;BME280;40093;43.224;27.910;2022-08-11T11:12:30;100204.66;;;30.27;37.29
11523;BME280;40093;43.224;27.910;2022-08-11T11:15:17;100201.56;;;30.14;37.73
11523;BME280;40093;43.224;27.910;2022-08-11T11:18:06;100205.97;;;30.09;37.96
11523;BME280;40093;43.224;27.910;2022-08-11T11:20:39;100214.72;;;30.06;37.94
11523;BME280;40093;43.224;27.910;2022-08-11T11:23:12;100214.22;;;30.18;37.75
11523;BME280;40093;43.224;27.910;2022-08-11T11:25:54;100219.88;;;30.29;37.87
11523;BME280;40093;43.224;27.910;2022-08-11T11:28:50;100225.56;;;30.29;36.78
11523;BME280;40093;43.224;27.910;2022-08-11T11:31:33;100208.78;;;30.20;37.46
11523;BME280;40093;43.224;27.910;2022-08-11T11:34:16;100225.03;;;29.98;37.60
11523;BME280;40093;43.224;27.910;2022-08-11T11:36:47;100231.97;;;29.97;37.87
11523;BME280;40093;43.224;27.910;2022-08-11T11:39:17;100219.59;;;29.78;37.64
11523;BME280;40093;43.224;27.910;2022-08-11T11:41:45;100206.72;;;29.99;38.02
11523;BME280;40093;43.224;27.910;2022-08-11T11:44:12;100213.41;;;29.85;37.83
11523;BME280;40093;43.224;27.910;2022-08-11T11:46:41;100211.59;;;29.98;38.17
11523;BME280;40093;43.224;27.910;2022-08-11T11:49:13;100197.41;;;30.04;37.99
11523;BME280;40093;43.224;27.910;2022-08-11T11:51:43;100180.91;;;30.30;37.42
11523;BME280;40093;43.224;27.910;2022-08-11T11:54:13;100202.06;;;30.40;37.00
11523;BME280;40093;43.224;27.910;2022-08-11T11:56:40;100201.50;;;30.58;37.30
11523;BME280;40093;43.224;27.910;2022-08-11T11:59:09;100188.09;;;30.64;36.49
11523;BME280;40093;43.224;27.910;2022-08-11T12:01:55;100199.75;;;30.33;36.26
11523;BME280;40093;43.224;27.910;2022-08-11T12:04:24;100213.94;;;30.44;36.05
11523;BME280;40093;43.224;27.910;2022-08-11T12:06:52;100219.59;;;30.55;35.85
11523;BME280;40093;43.224;27.910;2022-08-11T12:09:40;100211.34;;;30.35;35.31
11523;BME280;40093;43.224;27.910;2022-08-11T12:12:08;100210.31;;;30.43;36.04
11523;BME280;40093;43.224;27.910;2022-08-11T12:14:53;100210.28;;;30.60;35.42
11523;BME280;40093;43.224;27.910;2022-08-11T12:17:20;100210.22;;;30.82;35.48
11523;BME280;40093;43.224;27.910;2022-08-11T12:19:50;100205.09;;;30.75;35.32
11523;BME280;40093;43.224;27.910;2022-08-11T12:22:18;100228.88;;;30.61;35.30
11523;BME280;40093;43.224;27.910;2022-08-11T12:25:04;100206.16;;;30.61;36.18
11523;BME280;40093;43.224;27.910;2022-08-11T12:27:52;100207.19;;;30.58;36.06
11523;BME280;40093;43.224;27.910;2022-08-11T12:30:19;100204.59;;;30.71;35.48
11523;BME280;40093;43.224;27.910;2022-08-11T12:32:46;100206.91;;;30.78;35.70
11523;BME280;40093;43.224;27.910;2022-08-11T12:35:15;100213.41;;;30.56;35.88
11523;BME280;40093;43.224;27.910;2022-08-11T12:37:44;100228.09;;;30.71;35.96
11523;BME280;40093;43.224;27.910;2022-08-11T12:40:15;100212.88;;;30.58;36.26
11523;BME280;40093;43.224;27.910;2022-08-11T12:43:02;100199.97;;;30.51;35.82
11523;BME280;40093;43.224;27.910;2022-08-11T12:45:47;100224.25;;;30.47;35.65
11523;BME280;40093;43.224;27.910;2022-08-11T12:48:18;100204.34;;;30.52;35.69
11523;BME280;40093;43.224;27.910;2022-08-11T12:51:06;100221.97;;;30.34;36.37
11523;BME280;40093;43.224;27.910;2022-08-11T12:53:56;100214.22;;;30.13;36.69
11523;BME280;40093;43.224;27.910;2022-08-11T12:56:27;100215.50;;;30.34;36.39
11523;BME280;40093;43.224;27.910;2022-08-11T12:59:18;100205.63;;;30.57;35.98
11523;BME280;40093;43.224;27.910;2022-08-11T13:02:02;100208.75;;;30.48;36.26
11523;BME280;40093;43.224;27.910;2022-08-11T13:04:46;100221.94;;;30.29;36.01
11523;BME280;40093;43.224;27.910;2022-08-11T13:07:22;100214.47;;;30.15;35.72
11523;BME280;40093;43.224;27.910;2022-08-11T13:09:50;100221.69;;;30.27;35.93
11523;BME280;40093;43.224;27.910;2022-08-11T13:12:18;100213.44;;;30.18;35.95
11523;BME280;40093;43.224;27.910;2022-08-11T13:15:04;100213.91;;;30.55;35.81
11523;BME280;40093;43.224;27.910;2022-08-11T13:17:32;100224.22;;;30.69;35.59
11523;BME280;40093;43.224;27.910;2022-08-11T13:20:00;100214.44;;;30.48;35.96
11523;BME280;40093;43.224;27.910;2022-08-11T13:22:29;100208.75;;;30.37;35.98
11523;BME280;40093;43.224;27.910;2022-08-11T13:24:57;100195.34;;;30.43;36.31
11523;BME280;40093;43.224;27.910;2022-08-11T13:27:25;100196.41;;;30.18;36.83
11523;BME280;40093;43.224;27.910;2022-08-11T13:29:52;100208.25;;;29.78;37.36
11523;BME280;40093;43.224;27.910;2022-08-11T13:32:41;100205.44;;;30.05;37.26
11523;BME280;40093;43.224;27.910;2022-08-11T13:35:11;100201.53;;;30.36;36.53
11523;BME280;40093;43.224;27.910;2022-08-11T13:37:44;100200.00;;;30.24;36.58
11523;BME280;40093;43.224;27.910;2022-08-11T13:40:16;100213.44;;;30.07;36.87
11523;BME280;40093;43.224;27.910;2022-08-11T13:42:45;100190.47;;;30.21;38.91
11523;BME280;40093;43.224;27.910;2022-08-11T13:45:13;100201.03;;;30.43;38.33
11523;BME280;40093;43.224;27.910;2022-08-11T13:47:41;100181.94;;;30.27;38.29
11523;BME280;40093;43.224;27.910;2022-08-11T13:50:09;100194.34;;;30.24;37.01
11523;BME280;40093;43.224;27.910;2022-08-11T13:52:39;100189.97;;;30.12;37.22
11523;BME280;40093;43.224;27.910;2022-08-11T13:55:11;100194.59;;;30.09;37.67
11523;BME280;40093;43.224;27.910;2022-08-11T13:57:48;100205.69;;;30.13;37.24
11523;BME280;40093;43.224;27.910;2022-08-11T14:00:16;100196.91;;;30.00;37.36
11523;BME280;40093;43.224;27.910;2022-08-11T14:02:44;100215.22;;;29.88;38.18
11523;BME280;40093;43.224;27.910;2022-08-11T14:05:16;100207.72;;;29.96;38.44
11523;BME280;40093;43.224;27.910;2022-08-11T14:07:47;100212.09;;;29.86;37.93
11523;BME280;40093;43.224;27.910;2022-08-11T14:10:19;100211.34;;;29.80;38.18
11523;BME280;40093;43.224;27.910;2022-08-11T14:12:54;100202.84;;;29.96;37.68
11523;BME280;40093;43.224;27.910;2022-08-11T14:15:42;100205.94;;;30.15;36.89
11523;BME280;40093;43.224;27.910;2022-08-11T14:18:17;100188.16;;;30.31;36.68
11523;BME280;40093;43.224;27.910;2022-08-11T14:20:49;100197.97;;;30.08;36.90